sensor_id;sensor_type;location;lat;lon;timestamp;P1;durP1;ratioP1;P2;durP2;ratioP2
17927;SDS011;9089;58.396;15.544;2022-10-03T00:02:11;6.55;;;5.95;;
17927;SDS011;9089;58.396;15.544;2022-10-03T00:04:44;6.57;;;5.97;;
17927;SDS011;9089;58.396;15.544;2022-10-03T00:07:14;6.13;;;5.53;;
17927;SDS011;9089;58.396;15.544;2022-10-03T00:27:07;6.50;;;5.82;;
17927;SDS011;9089;58.396;15.544;2022-10-03T00:29:49;9.90;;;6.75;;
17927;SDS011;9089;58.396;15.544;2022-10-03T00:32:25;7.45;;;6.00;;
17927;SDS011;9089;58.396;15.544;2022-10-03T00:35:01;9.50;;;5.53;;
17927;SDS011;9089;58.396;15.544;2022-10-03T00:37:32;6.50;;;5.75;;
17927;SDS011;9089;58.396;15.544;2022-10-03T00:40:04;7.25;;;6.22;;
17927;SDS011;9089;58.396;15.544;2022-10-03T00:45:36;8.18;;;6.53;;
17927;SDS011;9089;58.396;15.544;2022-10-03T00:48:25;7.15;;;6.20;;
17927;SDS011;9089;58.396;15.544;2022-10-03T00:50:58;6.90;;;6.20;;
17927;SDS011;9089;58.396;15.544;2022-10-03T00:53:46;8.75;;;6.95;;
17927;SDS011;9089;58.396;15.544;2022-10-03T00:56:24;8.02;;;7.22;;
17927;SDS011;9089;58.396;15.544;2022-10-03T00:58:56;7.13;;;6.43;;
17927;SDS011;9089;58.396;15.544;2022-10-03T01:01:33;7.47;;;6.30;;
17927;SDS011;9089;58.396;15.544;2022-10-03T01:04:13;7.75;;;6.78;;
17927;SDS011;9089;58.396;15.544;2022-10-03T01:06:46;7.80;;;6.85;;
17927;SDS011;9089;58.396;15.544;2022-10-03T01:09:19;8.05;;;7.25;;
17927;SDS011;9089;58.396;15.544;2022-10-03T01:11:53;8.95;;;7.20;;
17927;SDS011;9089;58.396;15.544;2022-10-03T01:14:36;8.98;;;7.78;;
17927;SDS011;9089;58.396;15.544;2022-10-03T01:17:06;8.13;;;7.32;;
17927;SDS011;9089;58.396;15.544;2022-10-03T01:19:53;9.23;;;6.97;;
17927;SDS011;9089;58.396;15.544;2022-10-03T01:22:26;10.00;;;6.65;;
17927;SDS011;9089;58.396;15.544;2022-10-03T01:24:58;7.63;;;6.90;;
17927;SDS011;9089;58.396;15.544;2022-10-03T01:27:36;7.40;;;5.38;;
17927;SDS011;9089;58.396;15.544;2022-10-03T01:30:27;6.18;;;5.57;;
17927;SDS011;9089;58.396;15.544;2022-10-03T01:32:55;6.38;;;5.78;;
17927;SDS011;9089;58.396;15.544;2022-10-03T01:35:25;6.80;;;6.20;;
17927;SDS011;9089;58.396;15.544;2022-10-03T01:37:53;9.10;;;6.68;;
17927;SDS011;9089;58.396;15.544;2022-10-03T01:40:23;6.30;;;5.70;;
17927;SDS011;9089;58.396;15.544;2022-10-03T01:42:56;6.30;;;5.70;;
17927;SDS011;9089;58.396;15.544;2022-10-03T01:45:25;6.47;;;5.88;;
17927;SDS011;9089;58.396;15.544;2022-10-03T01:47:56;6.30;;;5.78;;
17927;SDS011;9089;58.396;15.544;2022-10-03T01:50:25;6.82;;;5.65;;
17927;SDS011;9089;58.396;15.544;2022-10-03T01:52:53;5.90;;;5.40;;
17927;SDS011;9089;58.396;15.544;2022-10-03T01:55:24;7.28;;;6.15;;
17927;SDS011;9089;58.396;15.544;2022-10-03T01:57:56;5.65;;;5.13;;
17927;SDS011;9089;58.396;15.544;2022-10-03T02:00:25;6.25;;;5.65;;
17927;SDS011;9089;58.396;15.544;2022-10-03T02:02:59;5.53;;;5.03;;
17927;SDS011;9089;58.396;15.544;2022-10-03T02:05:27;7.78;;;5.90;;
17927;SDS011;9089;58.396;15.544;2022-10-03T02:07:59;8.10;;;5.68;;
17927;SDS011;9089;58.396;15.544;2022-10-03T02:10:31;6.63;;;5.80;;
17927;SDS011;9089;58.396;15.544;2022-10-03T02:13:06;6.05;;;5.55;;
17927;SDS011;9089;58.396;15.544;2022-10-03T02:15:33;6.13;;;5.63;;
17927;SDS011;9089;58.396;15.544;2022-10-03T02:18:10;5.50;;;4.97;;
17927;SDS011;9089;58.396;15.544;2022-10-03T02:20:40;6.80;;;6.13;;
17927;SDS011;9089;58.396;15.544;2022-10-03T02:23:14;6.55;;;5.75;;
17927;SDS011;9089;58.396;15.544;2022-10-03T02:25:50;5.80;;;5.10;;
17927;SDS011;9089;58.396;15.544;2022-10-03T02:28:25;6.40;;;5.85;;
17927;SDS011;9089;58.396;15.544;2022-10-03T02:31:05;6.28;;;5.68;;
17927;SDS011;9089;58.396;15.544;2022-10-03T02:33:41;8.25;;;6.05;;
17927;SDS011;9089;58.396;15.544;2022-10-03T02:44:39;5.22;;;4.72;;
17927;SDS011;9089;58.396;15.544;2022-10-03T02:50:17;6.38;;;5.72;;
17927;SDS011;9089;58.396;15.544;2022-10-03T02:53:03;6.47;;;5.53;;
17927;SDS011;9089;58.396;15.544;2022-10-03T02:55:44;5.75;;;5.25;;
17927;SDS011;9089;58.396;15.544;2022-10-03T02:58:20;8.10;;;6.00;;
17927;SDS011;9089;58.396;15.544;2022-10-03T03:00:55;7.95;;;6.32;;
17927;SDS011;9089;58.396;15.544;2022-10-03T03:03:29;6.82;;;6.22;;
17927;SDS011;9089;58.396;15.544;2022-10-03T03:09:01;6.40;;;5.80;;
17927;SDS011;9089;58.396;15.544;2022-10-03T03:11:48;5.80;;;5.30;;
17927;SDS011;9089;58.396;15.544;2022-10-03T03:17:10;6.10;;;5.32;;
17927;SDS011;9089;58.396;15.544;2022-10-03T03:19:50;6.35;;;5.78;;
17927;SDS011;9089;58.396;15.544;2022-10-03T03:22:24;5.20;;;4.80;;
17927;SDS011;9089;58.396;15.544;2022-10-03T03:24:57;6.10;;;5.30;;
17927;SDS011;9089;58.396;15.544;2022-10-03T03:27:32;5.60;;;5.10;;
17927;SDS011;9089;58.396;15.544;2022-10-03T03:30:01;6.20;;;5.63;;
17927;SDS011;9089;58.396;15.544;2022-10-03T03:32:29;7.72;;;5.65;;
17927;SDS011;9089;58.396;15.544;2022-10-03T03:35:05;6.75;;;6.15;;
17927;SDS011;9089;58.396;15.544;2022-10-03T03:37:36;10.73;;;6.18;;
17927;SDS011;9089;58.396;15.544;2022-10-03T03:40:16;6.30;;;5.65;;
17927;SDS011;9089;58.396;15.544;2022-10-03T03:42:53;5.40;;;4.90;;
17927;SDS011;9089;58.396;15.544;2022-10-03T03:45:27;5.68;;;5.05;;
17927;SDS011;9089;58.396;15.544;2022-10-03T03:48:01;6.10;;;5.13;;
17927;SDS011;9089;58.396;15.544;2022-10-03T03:50:43;6.40;;;5.80;;
17927;SDS011;9089;58.396;15.544;2022-10-03T03:56:04;5.70;;;5.20;;
17927;SDS011;9089;58.396;15.544;2022-10-03T03:58:34;6.65;;;5.90;;
17927;SDS011;9089;58.396;15.544;2022-10-03T04:01:26;5.78;;;5.05;;
17927;SDS011;9089;58.396;15.544;2022-10-03T04:03:57;5.18;;;4.68;;
17927;SDS011;9089;58.396;15.544;2022-10-03T04:06:28;5.60;;;4.63;;
17927;SDS011;9089;58.396;15.544;2022-10-03T04:11:49;5.30;;;4.80;;
17927;SDS011;9089;58.396;15.544;2022-10-03T04:17:22;5.63;;;5.05;;
17927;SDS011;9089;58.396;15.544;2022-10-03T04:20:16;5.72;;;5.20;;
17927;SDS011;9089;58.396;15.544;2022-10-03T04:22:49;5.80;;;5.30;;
17927;SDS011;9089;58.396;15.544;2022-10-03T04:31:04;5.28;;;4.80;;
17927;SDS011;9089;58.396;15.544;2022-10-03T04:33:34;4.93;;;4.53;;
17927;SDS011;9089;58.396;15.544;2022-10-03T04:36:14;5.25;;;4.45;;
17927;SDS011;9089;58.396;15.544;2022-10-03T04:38:48;4.97;;;4.57;;
17927;SDS011;9089;58.396;15.544;2022-10-03T04:41:20;5.35;;;4.85;;
17927;SDS011;9089;58.396;15.544;2022-10-03T04:43:53;4.88;;;4.47;;
17927;SDS011;9089;58.396;15.544;2022-10-03T04:46:25;6.65;;;5.13;;
17927;SDS011;9089;58.396;15.544;2022-10-03T04:48:53;4.68;;;4.28;;
17927;SDS011;9089;58.396;15.544;2022-10-03T04:51:23;5.60;;;5.10;;
17927;SDS011;9089;58.396;15.544;2022-10-03T04:53:51;5.18;;;4.68;;
17927;SDS011;9089;58.396;15.544;2022-10-03T04:56:37;5.30;;;4.90;;
17927;SDS011;9089;58.396;15.544;2022-10-03T04:59:11;5.47;;;5.03;;
17927;SDS011;9089;58.396;15.544;2022-10-03T05:01:46;5.07;;;4.68;;
17927;SDS011;9089;58.396;15.544;2022-10-03T05:04:17;5.63;;;5.13;;
17927;SDS011;9089;58.396;15.544;2022-10-03T05:06:44;5.43;;;5.00;;
17927;SDS011;9089;58.396;15.544;2022-10-03T05:09:16;6.88;;;5.13;;
17927;SDS011;9089;58.396;15.544;2022-10-03T05:11:47;5.35;;;4.45;;
17927;SDS011;9089;58.396;15.544;2022-10-03T05:14:19;6.78;;;5.13;;
17927;SDS011;9089;58.396;15.544;2022-10-03T05:16:50;7.05;;;5.25;;
17927;SDS011;9089;58.396;15.544;2022-10-03T05:22:00;6.43;;;5.10;;
17927;SDS011;9089;58.396;15.544;2022-10-03T05:24:30;5.53;;;4.85;;
17927;SDS011;9089;58.396;15.544;2022-10-03T05:27:00;7.10;;;5.90;;
17927;SDS011;9089;58.396;15.544;2022-10-03T05:29:30;6.32;;;5.72;;
17927;SDS011;9089;58.396;15.544;2022-10-03T05:32:05;5.80;;;5.30;;
17927;SDS011;9089;58.396;15.544;2022-10-03T05:34:37;8.55;;;5.40;;
17927;SDS011;9089;58.396;15.544;2022-10-03T05:37:16;7.88;;;5.20;;
17927;SDS011;9089;58.396;15.544;2022-10-03T05:39:50;7.03;;;5.95;;
17927;SDS011;9089;58.396;15.544;2022-10-03T05:42:23;5.60;;;5.07;;
17927;SDS011;9089;58.396;15.544;2022-10-03T05:44:53;7.63;;;6.43;;
17927;SDS011;9089;58.396;15.544;2022-10-03T05:47:27;7.35;;;6.65;;
17927;SDS011;9089;58.396;15.544;2022-10-03T05:53:08;7.53;;;6.82;;
17927;SDS011;9089;58.396;15.544;2022-10-03T05:55:43;7.35;;;6.47;;
17927;SDS011;9089;58.396;15.544;2022-10-03T05:58:20;7.05;;;6.45;;
17927;SDS011;9089;58.396;15.544;2022-10-03T06:00:54;10.60;;;7.90;;
17927;SDS011;9089;58.396;15.544;2022-10-03T06:03:47;8.65;;;7.57;;
17927;SDS011;9089;58.396;15.544;2022-10-03T06:06:16;9.10;;;8.20;;
17927;SDS011;9089;58.396;15.544;2022-10-03T06:08:57;8.73;;;7.80;;
17927;SDS011;9089;58.396;15.544;2022-10-03T06:14:28;11.07;;;7.82;;
17927;SDS011;9089;58.396;15.544;2022-10-03T06:16:59;10.45;;;8.73;;
17927;SDS011;9089;58.396;15.544;2022-10-03T06:19:33;9.27;;;8.27;;
17927;SDS011;9089;58.396;15.544;2022-10-03T06:24:57;9.57;;;8.68;;
17927;SDS011;9089;58.396;15.544;2022-10-03T06:30:19;9.15;;;8.30;;
17927;SDS011;9089;58.396;15.544;2022-10-03T06:33:03;9.40;;;8.45;;
17927;SDS011;9089;58.396;15.544;2022-10-03T06:35:40;10.55;;;8.80;;
17927;SDS011;9089;58.396;15.544;2022-10-03T06:46:46;9.45;;;8.55;;
17927;SDS011;9089;58.396;15.544;2022-10-03T06:49:28;9.90;;;8.90;;
17927;SDS011;9089;58.396;15.544;2022-10-03T06:52:19;9.98;;;8.60;;
17927;SDS011;9089;58.396;15.544;2022-10-03T06:57:55;10.93;;;9.85;;
17927;SDS011;9089;58.396;15.544;2022-10-03T07:00:26;10.70;;;9.70;;
17927;SDS011;9089;58.396;15.544;2022-10-03T07:03:12;9.82;;;8.93;;
17927;SDS011;9089;58.396;15.544;2022-10-03T07:05:49;11.07;;;9.77;;
17927;SDS011;9089;58.396;15.544;2022-10-03T07:11:26;11.73;;;9.07;;
17927;SDS011;9089;58.396;15.544;2022-10-03T07:13:59;9.68;;;8.75;;
17927;SDS011;9089;58.396;15.544;2022-10-03T07:16:45;9.85;;;8.95;;
17927;SDS011;9089;58.396;15.544;2022-10-03T07:19:27;10.02;;;8.63;;
17927;SDS011;9089;58.396;15.544;2022-10-03T07:27:29;11.15;;;9.30;;
17927;SDS011;9089;58.396;15.544;2022-10-03T07:30:07;10.40;;;9.23;;
17927;SDS011;9089;58.396;15.544;2022-10-03T07:32:43;12.35;;;11.13;;
17927;SDS011;9089;58.396;15.544;2022-10-03T07:35:20;11.05;;;9.95;;
17927;SDS011;9089;58.396;15.544;2022-10-03T07:37:54;9.25;;;8.35;;
17927;SDS011;9089;58.396;15.544;2022-10-03T07:41:03;9.00;;;8.15;;
17927;SDS011;9089;58.396;15.544;2022-10-03T07:43:50;8.93;;;7.70;;
17927;SDS011;9089;58.396;15.544;2022-10-03T07:46:39;7.97;;;7.28;;
17927;SDS011;9089;58.396;15.544;2022-10-03T07:49:16;7.38;;;6.65;;
17927;SDS011;9089;58.396;15.544;2022-10-03T07:51:52;8.73;;;7.85;;
17927;SDS011;9089;58.396;15.544;2022-10-03T07:54:31;11.55;;;10.30;;
17927;SDS011;9089;58.396;15.544;2022-10-03T07:57:03;10.20;;;9.23;;
17927;SDS011;9089;58.396;15.544;2022-10-03T07:59:41;10.90;;;9.80;;
17927;SDS011;9089;58.396;15.544;2022-10-03T08:02:20;10.60;;;8.68;;
17927;SDS011;9089;58.396;15.544;2022-10-03T08:05:06;8.68;;;7.90;;
17927;SDS011;9089;58.396;15.544;2022-10-03T08:07:46;7.72;;;6.90;;
17927;SDS011;9089;58.396;15.544;2022-10-03T08:10:17;7.65;;;6.90;;
17927;SDS011;9089;58.396;15.544;2022-10-03T08:15:47;7.72;;;6.75;;
17927;SDS011;9089;58.396;15.544;2022-10-03T08:20:55;7.25;;;6.50;;
17927;SDS011;9089;58.396;15.544;2022-10-03T08:26:08;6.28;;;5.75;;
17927;SDS011;9089;58.396;15.544;2022-10-03T08:28:49;6.68;;;6.07;;
17927;SDS011;9089;58.396;15.544;2022-10-03T08:31:22;7.18;;;6.47;;
17927;SDS011;9089;58.396;15.544;2022-10-03T08:33:53;7.10;;;6.50;;
17927;SDS011;9089;58.396;15.544;2022-10-03T08:36:33;6.95;;;6.25;;
17927;SDS011;9089;58.396;15.544;2022-10-03T08:39:09;6.88;;;6.28;;
17927;SDS011;9089;58.396;15.544;2022-10-03T08:50:16;6.97;;;6.38;;
17927;SDS011;9089;58.396;15.544;2022-10-03T08:52:46;6.45;;;5.95;;
17927;SDS011;9089;58.396;15.544;2022-10-03T08:55:27;7.15;;;6.55;;
17927;SDS011;9089;58.396;15.544;2022-10-03T08:58:11;11.32;;;6.50;;
17927;SDS011;9089;58.396;15.544;2022-10-03T09:06:16;7.60;;;6.28;;
17927;SDS011;9089;58.396;15.544;2022-10-03T09:08:58;6.22;;;5.63;;
17927;SDS011;9089;58.396;15.544;2022-10-03T09:11:41;6.53;;;5.22;;
17927;SDS011;9089;58.396;15.544;2022-10-03T09:16:58;7.20;;;6.50;;
17927;SDS011;9089;58.396;15.544;2022-10-03T09:19:42;11.38;;;7.13;;
17927;SDS011;9089;58.396;15.544;2022-10-03T09:22:22;7.47;;;6.40;;
17927;SDS011;9089;58.396;15.544;2022-10-03T09:25:06;6.43;;;5.82;;
17927;SDS011;9089;58.396;15.544;2022-10-03T09:27:37;6.45;;;5.78;;
17927;SDS011;9089;58.396;15.544;2022-10-03T09:30:16;5.75;;;5.25;;
17927;SDS011;9089;58.396;15.544;2022-10-03T09:33:05;5.47;;;4.60;;
17927;SDS011;9089;58.396;15.544;2022-10-03T09:35:39;5.43;;;4.95;;
17927;SDS011;9089;58.396;15.544;2022-10-03T09:38:20;5.40;;;4.15;;
17927;SDS011;9089;58.396;15.544;2022-10-03T09:41:07;4.90;;;4.40;;
17927;SDS011;9089;58.396;15.544;2022-10-03T09:43:53;4.07;;;3.78;;
17927;SDS011;9089;58.396;15.544;2022-10-03T09:46:38;4.20;;;3.45;;
17927;SDS011;9089;58.396;15.544;2022-10-03T09:51:55;5.00;;;3.88;;
17927;SDS011;9089;58.396;15.544;2022-10-03T09:57:27;5.95;;;4.45;;
17927;SDS011;9089;58.396;15.544;2022-10-03T10:00:02;4.57;;;3.72;;
17927;SDS011;9089;58.396;15.544;2022-10-03T10:02:52;3.78;;;3.42;;
17927;SDS011;9089;58.396;15.544;2022-10-03T10:05:27;5.38;;;3.25;;
17927;SDS011;9089;58.396;15.544;2022-10-03T10:08:21;4.07;;;3.72;;
17927;SDS011;9089;58.396;15.544;2022-10-03T10:16:28;3.67;;;3.15;;
17927;SDS011;9089;58.396;15.544;2022-10-03T10:19:05;3.30;;;3.00;;
17927;SDS011;9089;58.396;15.544;2022-10-03T10:21:44;4.07;;;3.30;;
17927;SDS011;9089;58.396;15.544;2022-10-03T10:29:55;3.38;;;3.08;;
17927;SDS011;9089;58.396;15.544;2022-10-03T10:37:56;4.28;;;3.00;;
17927;SDS011;9089;58.396;15.544;2022-10-03T10:51:56;3.10;;;2.30;;
17927;SDS011;9089;58.396;15.544;2022-10-03T10:57:20;2.40;;;2.20;;
17927;SDS011;9089;58.396;15.544;2022-10-03T11:08:31;2.35;;;2.15;;
17927;SDS011;9089;58.396;15.544;2022-10-03T11:11:12;2.40;;;2.20;;
17927;SDS011;9089;58.396;15.544;2022-10-03T11:13:53;3.95;;;2.25;;
17927;SDS011;9089;58.396;15.544;2022-10-03T11:16:40;2.85;;;2.10;;
17927;SDS011;9089;58.396;15.544;2022-10-03T11:33:32;2.05;;;1.95;;
17927;SDS011;9089;58.396;15.544;2022-10-03T11:38:47;2.47;;;2.28;;
17927;SDS011;9089;58.396;15.544;2022-10-03T11:41:17;2.00;;;1.90;;
17927;SDS011;9089;58.396;15.544;2022-10-03T11:44:01;2.78;;;2.08;;
17927;SDS011;9089;58.396;15.544;2022-10-03T11:46:37;2.92;;;1.90;;
17927;SDS011;9089;58.396;15.544;2022-10-03T11:49:11;7.80;;;2.40;;
17927;SDS011;9089;58.396;15.544;2022-10-03T11:51:45;2.13;;;1.92;;
17927;SDS011;9089;58.396;15.544;2022-10-03T11:54:19;2.20;;;2.10;;
17927;SDS011;9089;58.396;15.544;2022-10-03T11:56:47;3.97;;;2.00;;
17927;SDS011;9089;58.396;15.544;2022-10-03T11:59:28;2.83;;;2.20;;
17927;SDS011;9089;58.396;15.544;2022-10-03T12:02:00;2.22;;;2.03;;
17927;SDS011;9089;58.396;15.544;2022-10-03T12:04:34;2.00;;;1.80;;
17927;SDS011;9089;58.396;15.544;2022-10-03T12:07:03;2.20;;;1.98;;
17927;SDS011;9089;58.396;15.544;2022-10-03T12:09:56;2.33;;;2.13;;
17927;SDS011;9089;58.396;15.544;2022-10-03T12:12:25;3.05;;;1.92;;
17927;SDS011;9089;58.396;15.544;2022-10-03T12:14:56;3.45;;;2.13;;
17927;SDS011;9089;58.396;15.544;2022-10-03T12:17:25;1.70;;;1.60;;
17927;SDS011;9089;58.396;15.544;2022-10-03T12:19:55;2.03;;;1.92;;
17927;SDS011;9089;58.396;15.544;2022-10-03T12:22:28;3.13;;;2.00;;
17927;SDS011;9089;58.396;15.544;2022-10-03T12:25:00;2.22;;;1.70;;
17927;SDS011;9089;58.396;15.544;2022-10-03T12:27:29;2.72;;;1.80;;
17927;SDS011;9089;58.396;15.544;2022-10-03T12:29:56;2.00;;;1.83;;
17927;SDS011;9089;58.396;15.544;2022-10-03T12:32:27;1.60;;;1.50;;
17927;SDS011;9089;58.396;15.544;2022-10-03T12:34:59;1.70;;;1.60;;
17927;SDS011;9089;58.396;15.544;2022-10-03T12:37:45;1.75;;;1.65;;
17927;SDS011;9089;58.396;15.544;2022-10-03T12:40:14;1.77;;;1.67;;
17927;SDS011;9089;58.396;15.544;2022-10-03T12:42:41;1.45;;;1.35;;
17927;SDS011;9089;58.396;15.544;2022-10-03T12:45:11;3.55;;;1.85;;
17927;SDS011;9089;58.396;15.544;2022-10-03T12:47:43;1.90;;;1.80;;
17927;SDS011;9089;58.396;15.544;2022-10-03T12:50:20;1.95;;;1.85;;
17927;SDS011;9089;58.396;15.544;2022-10-03T12:52:49;2.05;;;1.52;;
17927;SDS011;9089;58.396;15.544;2022-10-03T12:55:22;2.97;;;1.65;;
17927;SDS011;9089;58.396;15.544;2022-10-03T12:57:52;1.90;;;1.55;;
17927;SDS011;9089;58.396;15.544;2022-10-03T13:00:20;1.77;;;1.67;;
17927;SDS011;9089;58.396;15.544;2022-10-03T13:02:50;1.73;;;1.50;;
17927;SDS011;9089;58.396;15.544;2022-10-03T13:05:27;2.83;;;1.70;;
17927;SDS011;9089;58.396;15.544;2022-10-03T13:07:54;2.85;;;1.77;;
17927;SDS011;9089;58.396;15.544;2022-10-03T13:10:24;2.90;;;1.80;;
17927;SDS011;9089;58.396;15.544;2022-10-03T13:12:52;2.10;;;1.92;;
17927;SDS011;9089;58.396;15.544;2022-10-03T13:18:14;1.80;;;1.70;;
17927;SDS011;9089;58.396;15.544;2022-10-03T13:20:46;2.85;;;1.70;;
17927;SDS011;9089;58.396;15.544;2022-10-03T13:23:18;1.95;;;1.80;;
17927;SDS011;9089;58.396;15.544;2022-10-03T13:25:45;2.53;;;1.77;;
17927;SDS011;9089;58.396;15.544;2022-10-03T13:28:15;3.35;;;1.98;;
17927;SDS011;9089;58.396;15.544;2022-10-03T13:30:45;1.92;;;1.73;;
17927;SDS011;9089;58.396;15.544;2022-10-03T13:33:13;2.47;;;2.28;;
17927;SDS011;9089;58.396;15.544;2022-10-03T13:35:40;1.70;;;1.60;;
17927;SDS011;9089;58.396;15.544;2022-10-03T13:38:29;2.42;;;2.22;;
17927;SDS011;9089;58.396;15.544;2022-10-03T13:41:04;1.75;;;1.65;;
17927;SDS011;9089;58.396;15.544;2022-10-03T13:43:33;2.15;;;1.70;;
17927;SDS011;9089;58.396;15.544;2022-10-03T13:46:02;1.73;;;1.63;;
17927;SDS011;9089;58.396;15.544;2022-10-03T13:48:32;2.00;;;1.80;;
17927;SDS011;9089;58.396;15.544;2022-10-03T13:50:58;1.58;;;1.48;;
17927;SDS011;9089;58.396;15.544;2022-10-03T13:56:09;1.83;;;1.73;;
17927;SDS011;9089;58.396;15.544;2022-10-03T13:58:38;1.70;;;1.58;;
17927;SDS011;9089;58.396;15.544;2022-10-03T14:01:12;2.83;;;1.60;;
17927;SDS011;9089;58.396;15.544;2022-10-03T14:03:40;1.67;;;1.58;;
17927;SDS011;9089;58.396;15.544;2022-10-03T14:06:14;3.30;;;1.90;;
17927;SDS011;9089;58.396;15.544;2022-10-03T14:11:33;1.83;;;1.60;;
17927;SDS011;9089;58.396;15.544;2022-10-03T14:14:08;1.95;;;1.40;;
17927;SDS011;9089;58.396;15.544;2022-10-03T14:16:39;2.65;;;1.50;;
17927;SDS011;9089;58.396;15.544;2022-10-03T14:19:07;1.15;;;1.05;;
17927;SDS011;9089;58.396;15.544;2022-10-03T14:21:47;2.50;;;1.30;;
17927;SDS011;9089;58.396;15.544;2022-10-03T14:24:26;1.38;;;1.13;;
17927;SDS011;9089;58.396;15.544;2022-10-03T14:26:58;1.30;;;1.20;;
17927;SDS011;9089;58.396;15.544;2022-10-03T14:29:28;1.25;;;1.00;;
17927;SDS011;9089;58.396;15.544;2022-10-03T14:31:56;1.70;;;1.40;;
17927;SDS011;9089;58.396;15.544;2022-10-03T14:34:33;1.25;;;1.15;;
17927;SDS011;9089;58.396;15.544;2022-10-03T14:37:03;1.30;;;1.20;;
17927;SDS011;9089;58.396;15.544;2022-10-03T14:39:33;1.92;;;1.40;;
17927;SDS011;9089;58.396;15.544;2022-10-03T14:42:13;1.83;;;1.25;;
17927;SDS011;9089;58.396;15.544;2022-10-03T14:44:43;1.88;;;1.38;;
17927;SDS011;9089;58.396;15.544;2022-10-03T14:47:10;1.10;;;1.00;;
17927;SDS011;9089;58.396;15.544;2022-10-03T14:49:37;2.35;;;1.20;;
17927;SDS011;9089;58.396;15.544;2022-10-03T14:52:04;2.60;;;1.40;;
17927;SDS011;9089;58.396;15.544;2022-10-03T14:54:30;1.20;;;1.10;;
17927;SDS011;9089;58.396;15.544;2022-10-03T14:57:11;1.70;;;1.17;;
17927;SDS011;9089;58.396;15.544;2022-10-03T14:59:38;1.20;;;1.10;;
17927;SDS011;9089;58.396;15.544;2022-10-03T15:02:24;1.40;;;1.15;;
17927;SDS011;9089;58.396;15.544;2022-10-03T15:04:49;1.42;;;1.13;;
17927;SDS011;9089;58.396;15.544;2022-10-03T15:07:17;2.03;;;0.98;;
17927;SDS011;9089;58.396;15.544;2022-10-03T15:09:56;2.78;;;1.17;;
17927;SDS011;9089;58.396;15.544;2022-10-03T15:12:23;1.38;;;1.17;;
17927;SDS011;9089;58.396;15.544;2022-10-03T15:14:55;2.63;;;1.38;;
17927;SDS011;9089;58.396;15.544;2022-10-03T15:17:23;1.38;;;1.02;;
17927;SDS011;9089;58.396;15.544;2022-10-03T15:19:50;1.85;;;1.27;;
17927;SDS011;9089;58.396;15.544;2022-10-03T15:22:22;2.00;;;1.67;;
17927;SDS011;9089;58.396;15.544;2022-10-03T15:24:49;4.65;;;1.40;;
17927;SDS011;9089;58.396;15.544;2022-10-03T15:27:17;1.70;;;1.40;;
17927;SDS011;9089;58.396;15.544;2022-10-03T15:29:44;1.70;;;1.23;;
17927;SDS011;9089;58.396;15.544;2022-10-03T15:32:18;1.98;;;1.30;;
17927;SDS011;9089;58.396;15.544;2022-10-03T15:34:45;1.60;;;1.38;;
17927;SDS011;9089;58.396;15.544;2022-10-03T15:37:14;3.95;;;1.20;;
17927;SDS011;9089;58.396;15.544;2022-10-03T15:39:40;1.88;;;1.50;;
17927;SDS011;9089;58.396;15.544;2022-10-03T15:42:18;3.97;;;1.30;;
17927;SDS011;9089;58.396;15.544;2022-10-03T15:44:47;2.15;;;1.02;;
17927;SDS011;9089;58.396;15.544;2022-10-03T15:47:18;0.82;;;0.82;;
17927;SDS011;9089;58.396;15.544;2022-10-03T15:49:44;1.92;;;1.05;;
17927;SDS011;9089;58.396;15.544;2022-10-03T15:52:13;2.15;;;1.00;;
17927;SDS011;9089;58.396;15.544;2022-10-03T15:54:40;1.98;;;0.80;;
17927;SDS011;9089;58.396;15.544;2022-10-03T15:57:12;1.30;;;1.20;;
17927;SDS011;9089;58.396;15.544;2022-10-03T15:59:40;0.85;;;0.60;;
17927;SDS011;9089;58.396;15.544;2022-10-03T16:02:14;0.90;;;0.70;;
17927;SDS011;9089;58.396;15.544;2022-10-03T16:04:41;3.97;;;0.70;;
17927;SDS011;9089;58.396;15.544;2022-10-03T16:07:08;1.48;;;0.82;;
17927;SDS011;9089;58.396;15.544;2022-10-03T16:09:39;1.23;;;0.90;;
17927;SDS011;9089;58.396;15.544;2022-10-03T16:12:21;2.58;;;0.70;;
17927;SDS011;9089;58.396;15.544;2022-10-03T16:14:55;2.90;;;0.80;;
17927;SDS011;9089;58.396;15.544;2022-10-03T16:17:25;1.35;;;0.77;;
17927;SDS011;9089;58.396;15.544;2022-10-03T16:19:55;1.42;;;0.80;;
17927;SDS011;9089;58.396;15.544;2022-10-03T16:22:23;2.95;;;0.70;;
17927;SDS011;9089;58.396;15.544;2022-10-03T16:24:57;1.67;;;0.90;;
17927;SDS011;9089;58.396;15.544;2022-10-03T16:27:25;1.48;;;1.10;;
17927;SDS011;9089;58.396;15.544;2022-10-03T16:29:52;1.48;;;1.00;;
17927;SDS011;9089;58.396;15.544;2022-10-03T16:32:19;0.98;;;0.90;;
17927;SDS011;9089;58.396;15.544;2022-10-03T16:34:45;2.05;;;1.30;;
17927;SDS011;9089;58.396;15.544;2022-10-03T16:37:17;2.03;;;1.25;;
17927;SDS011;9089;58.396;15.544;2022-10-03T16:39:45;16.02;;;1.42;;
17927;SDS011;9089;58.396;15.544;2022-10-03T16:42:12;1.95;;;1.02;;
17927;SDS011;9089;58.396;15.544;2022-10-03T16:44:46;2.92;;;1.15;;
17927;SDS011;9089;58.396;15.544;2022-10-03T16:47:13;2.25;;;1.20;;
17927;SDS011;9089;58.396;15.544;2022-10-03T16:49:40;1.30;;;1.20;;
17927;SDS011;9089;58.396;15.544;2022-10-03T16:52:30;1.63;;;1.50;;
17927;SDS011;9089;58.396;15.544;2022-10-03T16:54:56;2.10;;;1.42;;
17927;SDS011;9089;58.396;15.544;2022-10-03T16:57:25;3.47;;;2.00;;
17927;SDS011;9089;58.396;15.544;2022-10-03T16:59:53;2.33;;;1.77;;
17927;SDS011;9089;58.396;15.544;2022-10-03T17:02:20;3.92;;;1.92;;
17927;SDS011;9089;58.396;15.544;2022-10-03T17:04:48;2.63;;;1.85;;
17927;SDS011;9089;58.396;15.544;2022-10-03T17:07:18;2.22;;;2.03;;
17927;SDS011;9089;58.396;15.544;2022-10-03T17:09:48;1.55;;;1.45;;
17927;SDS011;9089;58.396;15.544;2022-10-03T17:12:14;2.50;;;2.20;;
17927;SDS011;9089;58.396;15.544;2022-10-03T17:14:40;2.10;;;1.88;;
17927;SDS011;9089;58.396;15.544;2022-10-03T17:17:07;1.90;;;1.80;;
17927;SDS011;9089;58.396;15.544;2022-10-03T17:19:39;2.78;;;2.00;;
17927;SDS011;9089;58.396;15.544;2022-10-03T17:22:11;2.20;;;1.80;;
17927;SDS011;9089;58.396;15.544;2022-10-03T17:24:41;2.25;;;2.05;;
17927;SDS011;9089;58.396;15.544;2022-10-03T17:27:12;2.80;;;2.53;;
17927;SDS011;9089;58.396;15.544;2022-10-03T17:29:41;2.45;;;2.25;;
17927;SDS011;9089;58.396;15.544;2022-10-03T17:32:11;3.03;;;2.70;;
17927;SDS011;9089;58.396;15.544;2022-10-03T17:34:38;2.60;;;2.40;;
17927;SDS011;9089;58.396;15.544;2022-10-03T17:39:52;3.13;;;2.83;;
17927;SDS011;9089;58.396;15.544;2022-10-03T17:42:35;2.88;;;2.67;;
17927;SDS011;9089;58.396;15.544;2022-10-03T17:45:07;6.13;;;2.63;;
17927;SDS011;9089;58.396;15.544;2022-10-03T17:47:39;3.22;;;2.67;;
17927;SDS011;9089;58.396;15.544;2022-10-03T17:50:11;2.92;;;2.72;;
17927;SDS011;9089;58.396;15.544;2022-10-03T17:52:39;5.65;;;3.20;;
17927;SDS011;9089;58.396;15.544;2022-10-03T17:55:05;3.92;;;3.28;;
17927;SDS011;9089;58.396;15.544;2022-10-03T17:57:37;5.25;;;3.00;;
17927;SDS011;9089;58.396;15.544;2022-10-03T18:00:04;4.60;;;3.10;;
17927;SDS011;9089;58.396;15.544;2022-10-03T18:02:34;3.67;;;3.10;;
17927;SDS011;9089;58.396;15.544;2022-10-03T18:05:02;3.25;;;2.95;;
17927;SDS011;9089;58.396;15.544;2022-10-03T18:07:30;3.95;;;3.15;;
17927;SDS011;9089;58.396;15.544;2022-10-03T18:09:57;4.57;;;3.60;;
17927;SDS011;9089;58.396;15.544;2022-10-03T18:12:26;3.67;;;3.38;;
17927;SDS011;9089;58.396;15.544;2022-10-03T18:15:06;4.57;;;3.45;;
17927;SDS011;9089;58.396;15.544;2022-10-03T18:17:45;3.25;;;2.90;;
17927;SDS011;9089;58.396;15.544;2022-10-03T18:20:18;3.22;;;3.03;;
17927;SDS011;9089;58.396;15.544;2022-10-03T18:22:45;4.00;;;3.70;;
17927;SDS011;9089;58.396;15.544;2022-10-03T18:25:13;3.35;;;3.05;;
17927;SDS011;9089;58.396;15.544;2022-10-03T18:28:11;4.25;;;2.67;;
17927;SDS011;9089;58.396;15.544;2022-10-03T18:30:44;3.55;;;3.25;;
17927;SDS011;9089;58.396;15.544;2022-10-03T18:33:12;3.38;;;3.05;;